createdAt,value
2016-12-16T02:31:47.567Z,0.5
2016-12-16T02:32:53.588Z,0.5
2016-12-16T02:33:59.609Z,0.5
2016-12-16T02:35:05.637Z,0.5
2016-12-16T02:36:11.650Z,0.5
2016-12-16T02:37:17.669Z,0.6
2016-12-16T02:38:23.687Z,0.6
2016-12-16T02:39:29.698Z,0.5
2016-12-16T02:40:35.714Z,0.5
2016-12-16T02:41:41.733Z,0.5
2016-12-16T02:42:47.751Z,0.5
2016-12-16T02:43:53.763Z,0.5
2016-12-16T02:44:59.790Z,0.5
2016-12-16T02:46:05.812Z,0.5
2016-12-16T02:47:11.830Z,0.4
2016-12-16T02:48:17.901Z,0.4
2016-12-16T02:49:23.925Z,0.4
2016-12-16T02:50:29.937Z,0.4
2016-12-16T02:51:35.952Z,0.4
2016-12-16T02:52:41.967Z,0.4
2016-12-16T02:53:47.998Z,0.4
2016-12-16T02:54:54.020Z,0.4
2016-12-16T02:56:00.044Z,0.4
2016-12-16T02:57:05.318Z,0.4
2016-12-16T02:58:11.326Z,0.4
2016-12-16T02:59:17.347Z,0.4
2016-12-16T03:00:23.367Z,0.4
2016-12-16T03:01:29.382Z,0.4
2016-12-16T03:02:35.404Z,0.4
2016-12-16T03:03:41.426Z,0.4
2016-12-16T03:04:47.445Z,0.5
2016-12-16T03:05:53.462Z,0.4
2016-12-16T03:06:59.482Z,0.4
2016-12-16T03:08:05.495Z,0.4
2016-12-16T03:09:11.508Z,0.4
2016-12-16T03:10:17.527Z,0.4
2016-12-16T03:11:23.542Z,0.4
2016-12-16T03:12:29.558Z,0.4
2016-12-16T03:13:35.580Z,0.4
2016-12-16T03:14:41.599Z,0.4
2016-12-16T03:15:47.617Z,0.4
2016-12-16T03:16:53.639Z,0.5
2016-12-16T03:17:59.659Z,0.4
2016-12-16T03:19:05.674Z,0.4
2016-12-16T03:20:11.690Z,0.4
2016-12-16T03:21:17.715Z,0.4
2016-12-16T03:22:23.736Z,0.3
2016-12-16T03:23:29.754Z,0.4
2016-12-16T03:24:35.768Z,0.4
2016-12-16T03:25:41.790Z,0.4
2016-12-16T03:26:47.807Z,0.4
2016-12-16T03:27:53.828Z,0.4
2016-12-16T03:28:59.847Z,0.4
2016-12-16T03:30:05.868Z,0.4
2016-12-16T03:31:11.888Z,0.4
2016-12-16T03:32:17.911Z,0.4
2016-12-16T03:33:23.935Z,0.5
2016-12-16T03:34:29.955Z,0.5
2016-12-16T03:35:35.982Z,0.5
2016-12-16T03:36:41.997Z,0.5
2016-12-16T03:37:48.018Z,0.5
2016-12-16T03:38:54.035Z,0.4
2016-12-16T03:40:00.059Z,0.4
2016-12-16T03:41:06.078Z,0.4
2016-12-16T03:42:12.096Z,0.4
2016-12-16T03:43:18.124Z,0.4
2016-12-16T03:44:24.136Z,0.4
2016-12-16T03:45:30.157Z,0.5
2016-12-16T03:46:36.174Z,0.5
2016-12-16T03:47:42.200Z,0.5
2016-12-16T03:48:48.209Z,0.5
2016-12-16T03:49:54.230Z,0.5
2016-12-16T03:51:00.253Z,0.5
2016-12-16T03:52:06.280Z,0.5
2016-12-16T03:53:12.288Z,0.5
2016-12-16T03:54:18.308Z,0.4
2016-12-16T03:55:24.330Z,0.5
2016-12-16T03:56:30.346Z,0.4
2016-12-16T03:57:36.359Z,0.4
2016-12-16T03:58:42.377Z,0.5
2016-12-16T03:59:48.391Z,0.4
2016-12-16T04:00:54.398Z,0.4
2016-12-16T04:02:00.420Z,0.4
2016-12-16T04:03:06.443Z,0.4
2016-12-16T04:04:12.465Z,0.4
2016-12-16T04:05:18.479Z,0.3
2016-12-16T04:06:24.501Z,0.4
2016-12-16T04:07:30.513Z,0.4
2016-12-16T04:08:36.526Z,0.4
2016-12-16T04:09:42.548Z,0.4
2016-12-16T04:10:48.571Z,0.4
2016-12-16T04:11:54.583Z,0.4
2016-12-16T04:13:00.618Z,0.4
2016-12-16T04:14:06.641Z,0.4
2016-12-16T04:15:12.665Z,0.4
2016-12-16T04:16:18.674Z,0.4
2016-12-16T04:17:24.696Z,0.4
2016-12-16T04:18:30.718Z,0.4
2016-12-16T04:19:36.733Z,0.4
2016-12-16T04:20:42.752Z,0.4
2016-12-16T04:21:48.776Z,0.4
2016-12-16T04:22:54.795Z,0.5
2016-12-16T04:24:00.809Z,0.4
2016-12-16T04:25:06.837Z,0.4
2016-12-16T04:26:12.853Z,0.4
2016-12-16T04:27:18.870Z,0.4
2016-12-16T04:28:24.884Z,0.4
2016-12-16T04:29:30.907Z,0.4
2016-12-16T04:30:36.928Z,0.4
2016-12-16T04:31:42.948Z,0.4
2016-12-16T04:32:48.969Z,0.4
2016-12-16T04:33:54.984Z,0.4
2016-12-16T04:35:01.007Z,0.4
2016-12-16T04:36:07.020Z,0.3
2016-12-16T04:37:13.038Z,0.4
2016-12-16T04:38:19.058Z,0.3
2016-12-16T04:39:24.332Z,0.4
2016-12-16T04:40:30.357Z,0.4
2016-12-16T04:41:36.373Z,0.4
2016-12-16T04:42:42.386Z,0.3
2016-12-16T04:43:48.408Z,0.4
2016-12-16T04:44:54.428Z,0.4
2016-12-16T04:46:00.445Z,0.4
2016-12-16T04:47:06.465Z,0.3
2016-12-16T04:48:12.486Z,0.3
2016-12-16T04:49:18.509Z,0.3
2016-12-16T04:50:24.524Z,0.4
2016-12-16T04:51:30.545Z,0.4
2016-12-16T04:52:36.562Z,0.4
2016-12-16T04:53:42.580Z,0.4
2016-12-16T04:54:48.597Z,0.4
2016-12-16T04:55:54.616Z,0.4
2016-12-16T04:57:00.632Z,0.4
2016-12-16T04:58:06.654Z,0.4
2016-12-16T04:59:12.671Z,0.4
2016-12-16T05:00:18.693Z,0.5
2016-12-16T05:01:24.713Z,0.5
2016-12-16T05:02:30.736Z,0.4
2016-12-16T05:03:36.753Z,0.4
2016-12-16T05:04:42.774Z,0.4
2016-12-16T05:05:48.790Z,0.4
2016-12-16T05:06:54.807Z,0.5
2016-12-16T05:08:00.827Z,0.5
2016-12-16T05:09:06.847Z,0.5
2016-12-16T05:10:12.868Z,0.5
2016-12-16T05:11:18.885Z,0.4
2016-12-16T05:12:24.905Z,0.4
2016-12-16T05:13:30.925Z,0.3
2016-12-16T05:14:36.938Z,0.4
2016-12-16T05:15:42.953Z,0.4
2016-12-16T05:16:48.961Z,0.4
2016-12-16T05:17:54.981Z,0.4
2016-12-16T05:19:01.004Z,0.4
2016-12-16T05:20:07.028Z,0.4
2016-12-16T05:21:13.037Z,0.4
2016-12-16T05:22:19.059Z,0.4
2016-12-16T05:23:25.082Z,0.4
2016-12-16T05:24:31.099Z,0.4
2016-12-16T05:25:37.112Z,0.4
2016-12-16T05:26:43.136Z,0.4
2016-12-16T05:27:49.160Z,0.3
2016-12-16T05:28:55.174Z,0.4
2016-12-16T05:30:01.185Z,0.4
2016-12-16T05:31:07.201Z,0.4
2016-12-16T05:32:13.223Z,0.4
2016-12-16T05:33:19.240Z,0.4
2016-12-16T05:34:25.264Z,0.4
2016-12-16T05:35:31.285Z,0.4
2016-12-16T05:36:37.304Z,0.4
2016-12-16T05:37:43.319Z,0.3
2016-12-16T05:38:49.342Z,0.3
2016-12-16T05:39:55.366Z,0.4
2016-12-16T05:41:01.392Z,0.3
2016-12-16T05:42:07.416Z,0.4
2016-12-16T05:43:13.442Z,0.4
2016-12-16T05:44:19.452Z,0.3
2016-12-16T05:45:25.475Z,0.3
2016-12-16T05:46:31.491Z,0.3
2016-12-16T05:47:37.513Z,0.4
2016-12-16T05:48:43.529Z,0.3
2016-12-16T05:49:49.552Z,0.4
2016-12-16T05:50:55.570Z,0.3
2016-12-16T05:52:01.582Z,0.3
2016-12-16T05:53:07.611Z,0.3
2016-12-16T05:54:13.637Z,0.3
2016-12-16T05:55:19.654Z,0.3
2016-12-16T05:56:25.670Z,0.2
2016-12-16T05:57:31.695Z,0.3
2016-12-16T05:58:37.710Z,0.3
2016-12-16T05:59:43.724Z,0.3
2016-12-16T06:00:49.740Z,0.3
2016-12-16T06:01:55.768Z,0.3
2016-12-16T06:03:01.787Z,0.2
2016-12-16T06:04:07.807Z,0.2
2016-12-16T06:05:13.824Z,0.2
2016-12-16T06:06:19.842Z,0.2
2016-12-16T06:07:25.861Z,0.2
2016-12-16T06:08:31.877Z,0.3
2016-12-16T06:09:37.889Z,0.2
2016-12-16T06:10:43.913Z,0.1
2016-12-16T06:11:49.934Z,0.2
2016-12-16T06:12:55.953Z,0.2
2016-12-16T06:14:01.977Z,0.2
2016-12-16T06:15:07.999Z,0.2
2016-12-16T06:16:14.014Z,0.2
2016-12-16T06:17:20.034Z,0.2
2016-12-16T06:18:26.052Z,0.2
2016-12-16T06:19:32.079Z,0.3
2016-12-16T06:20:38.096Z,0.2
2016-12-16T06:21:44.115Z,0.1
2016-12-16T06:22:50.136Z,0.2
2016-12-16T06:23:56.156Z,0.1
2016-12-16T06:25:02.173Z,0.1
2016-12-16T06:26:08.189Z,0.1
2016-12-16T06:27:14.213Z,0.2
2016-12-16T06:28:20.233Z,0.1
2016-12-16T06:29:26.252Z,0.1
2016-12-16T06:30:32.275Z,0
2016-12-16T06:31:38.289Z,0.1
2016-12-16T06:32:44.303Z,0
2016-12-16T06:33:50.318Z,0
2016-12-16T06:34:56.335Z,0.1
2016-12-16T06:36:02.363Z,0
2016-12-16T06:37:08.388Z,0
2016-12-16T06:38:14.404Z,0
2016-12-16T06:39:20.421Z,0
2016-12-16T06:40:26.442Z,0
2016-12-16T06:41:32.466Z,0.1
2016-12-16T06:42:38.484Z,0.1
2016-12-16T06:43:44.502Z,0.1
2016-12-16T06:44:50.525Z,0
2016-12-16T06:45:56.543Z,0
2016-12-16T06:47:02.561Z,0
2016-12-16T06:48:08.580Z,0.1
2016-12-16T06:49:14.601Z,0
2016-12-16T06:50:20.623Z,0
2016-12-16T06:51:26.645Z,0
2016-12-16T06:52:32.664Z,0
2016-12-16T06:53:38.679Z,0
2016-12-16T06:54:43.956Z,0
2016-12-16T06:55:49.981Z,0
2016-12-16T06:56:55.995Z,-0.1
2016-12-16T06:58:02.014Z,0
2016-12-16T06:59:08.034Z,0
2016-12-16T07:00:14.058Z,-0.1
2016-12-16T07:01:20.083Z,-0.1
2016-12-16T07:02:26.115Z,-0.1
2016-12-16T07:03:32.133Z,-0.1
2016-12-16T07:04:38.151Z,0
2016-12-16T07:05:44.162Z,0
2016-12-16T07:06:50.192Z,-0.1
2016-12-16T07:07:56.207Z,-0.1
2016-12-16T07:09:02.228Z,-0.1
2016-12-16T07:10:08.247Z,-0.2
2016-12-16T07:11:14.277Z,-0.1
2016-12-16T07:12:20.292Z,-0.1
2016-12-16T07:13:26.315Z,-0.1
2016-12-16T07:14:32.334Z,-0.1
2016-12-16T07:15:38.353Z,-0.1
2016-12-16T07:16:44.379Z,-0.2
2016-12-16T07:17:50.394Z,-0.1
2016-12-16T07:18:56.413Z,-0.1
2016-12-16T07:20:02.435Z,-0.1
2016-12-16T07:21:08.461Z,-0.1
2016-12-16T07:22:14.477Z,0
2016-12-16T07:23:20.500Z,-0.1
2016-12-16T07:24:26.520Z,-0.1
2016-12-16T07:25:32.548Z,-0.1
2016-12-16T07:26:38.562Z,-0.1
2016-12-16T07:27:44.582Z,-0.1
2016-12-16T07:28:50.604Z,-0.1
2016-12-16T07:29:56.634Z,-0.1
2016-12-16T07:31:02.649Z,-0.1
2016-12-16T07:32:08.674Z,-0.1
2016-12-16T07:33:14.702Z,-0.2
2016-12-16T07:34:20.728Z,-0.2
2016-12-16T07:35:26.744Z,-0.2
2016-12-16T07:36:32.770Z,-0.2
2016-12-16T07:37:38.789Z,-0.3
2016-12-16T07:38:44.814Z,-0.2
2016-12-16T07:39:50.840Z,-0.2
2016-12-16T07:40:56.862Z,-0.2
2016-12-16T07:42:01.786Z,-0.2
2016-12-16T07:43:07.809Z,-0.3
2016-12-16T07:44:13.828Z,-0.3
2016-12-16T07:45:19.845Z,-0.3
2016-12-16T07:46:25.865Z,-0.2
2016-12-16T07:47:31.889Z,-0.2
2016-12-16T07:48:37.905Z,-0.2
2016-12-16T07:49:43.932Z,-0.2
2016-12-16T07:50:49.956Z,-0.2
2016-12-16T07:51:55.978Z,-0.2
2016-12-16T07:53:01.994Z,-0.2
2016-12-16T07:54:08.015Z,-0.1
2016-12-16T07:55:14.035Z,-0.2
2016-12-16T07:56:20.053Z,-0.1
2016-12-16T07:57:26.069Z,0
2016-12-16T07:58:32.091Z,0.1
2016-12-16T07:59:38.112Z,0
2016-12-16T08:00:44.133Z,0
2016-12-16T08:01:50.149Z,0.1
2016-12-16T08:02:56.166Z,0
2016-12-16T08:04:02.188Z,0.1
2016-12-16T08:05:08.212Z,0.1
2016-12-16T08:06:14.228Z,0
2016-12-16T08:07:20.244Z,0.1
2016-12-16T08:08:26.267Z,0.1
2016-12-16T08:09:32.285Z,0.2
2016-12-16T08:10:38.306Z,0.1
2016-12-16T08:11:44.324Z,0.2
2016-12-16T08:12:50.346Z,0.2
2016-12-16T08:13:56.363Z,0.2
2016-12-16T08:15:02.377Z,0.3
2016-12-16T08:16:08.395Z,0.3
2016-12-16T08:17:14.415Z,0.3
2016-12-16T08:18:20.430Z,0.2
2016-12-16T08:19:26.445Z,0.2
2016-12-16T08:20:32.466Z,0.1
2016-12-16T08:21:38.492Z,0.1
2016-12-16T08:22:44.511Z,0.2
2016-12-16T08:23:50.526Z,0.2
2016-12-16T08:24:56.548Z,0.1
2016-12-16T08:26:02.570Z,0.1
2016-12-16T08:27:08.591Z,0.2
2016-12-16T08:28:14.609Z,0.2
2016-12-16T08:29:20.624Z,0.3
2016-12-16T08:30:26.652Z,0.4
2016-12-16T08:31:32.679Z,0.4
2016-12-16T08:32:38.699Z,0.4
2016-12-16T08:33:44.709Z,0.5
2016-12-16T08:34:50.736Z,0.5
2016-12-16T08:35:56.756Z,0.6
2016-12-16T08:37:02.772Z,0.7
2016-12-16T08:38:08.795Z,0.5
2016-12-16T08:39:14.819Z,0.7
2016-12-16T08:40:20.833Z,0.7
2016-12-16T08:41:26.848Z,0.7
2016-12-16T08:42:32.876Z,0.7
2016-12-16T08:43:38.890Z,0.6
2016-12-16T08:44:44.903Z,0.6
2016-12-16T08:45:50.920Z,0.7
2016-12-16T08:46:56.948Z,0.7
2016-12-16T08:48:02.969Z,0.8
2016-12-16T08:49:08.987Z,0.8
2016-12-16T08:50:14.998Z,0.8
2016-12-16T08:51:21.018Z,0.8
2016-12-16T08:52:27.042Z,0.8
2016-12-16T08:53:33.064Z,0.8
2016-12-16T08:54:39.086Z,0.8
2016-12-16T08:55:44.365Z,0.9
2016-12-16T08:56:50.387Z,1
2016-12-16T08:57:56.402Z,1.2
2016-12-16T08:59:02.420Z,1.1
2016-12-16T09:00:08.440Z,1.1
2016-12-16T09:01:14.462Z,1
2016-12-16T09:02:20.482Z,0.8
2016-12-16T09:03:26.493Z,1
2016-12-16T09:04:32.512Z,1
2016-12-16T09:05:38.526Z,1.1
2016-12-16T09:06:44.543Z,1.1
2016-12-16T09:07:50.565Z,1.1
2016-12-16T09:08:56.585Z,1.1
2016-12-16T09:10:02.599Z,1.3
2016-12-16T09:11:08.612Z,1.2
2016-12-16T09:12:14.635Z,1.2
2016-12-16T09:13:20.654Z,1
2016-12-16T09:14:26.675Z,0.9
2016-12-16T09:15:32.691Z,1.1
2016-12-16T09:16:38.721Z,1.2
2016-12-16T09:17:44.741Z,1.2
2016-12-16T09:18:50.754Z,1.2
2016-12-16T09:19:56.771Z,1.1
2016-12-16T09:21:02.796Z,1.2
2016-12-16T09:22:09.049Z,1.2
2016-12-16T09:23:18.416Z,1.2
2016-12-16T09:24:24.245Z,1.2
2016-12-16T09:25:30.252Z,1.2
2016-12-16T09:26:36.263Z,1.3
2016-12-16T09:27:42.285Z,1.3
2016-12-16T09:28:48.311Z,1.5
2016-12-16T09:29:54.334Z,1.6
2016-12-16T09:31:00.357Z,1.7
2016-12-16T09:32:06.370Z,1.7
2016-12-16T09:33:12.389Z,1.5
2016-12-16T09:34:18.409Z,1.6
2016-12-16T09:35:24.437Z,1.6
2016-12-16T09:36:30.447Z,1.5
2016-12-16T09:37:36.461Z,1.6
2016-12-16T09:38:42.479Z,1.8
2016-12-16T09:39:48.501Z,2.1
2016-12-16T09:40:54.517Z,2.4
2016-12-16T09:42:00.537Z,2.5
2016-12-16T09:43:06.561Z,2.4
2016-12-16T09:44:12.587Z,2.3
2016-12-16T09:45:18.600Z,2.3
2016-12-16T09:46:24.621Z,2.3
2016-12-16T09:47:30.640Z,2.5
2016-12-16T09:48:36.661Z,2.3
2016-12-16T09:49:42.674Z,2.2
2016-12-16T09:50:48.695Z,2.1
2016-12-16T09:51:54.719Z,2.2
2016-12-16T09:53:00.728Z,2.3
2016-12-16T09:54:06.751Z,2.5
2016-12-16T09:55:12.781Z,2.6
2016-12-16T09:56:18.795Z,2.3
2016-12-16T09:57:24.805Z,2
2016-12-16T09:58:30.822Z,2.1
2016-12-16T09:59:36.844Z,2.3
2016-12-16T10:00:42.867Z,2.5
2016-12-16T10:01:48.889Z,2.5
2016-12-16T10:02:54.902Z,2.6
2016-12-16T10:04:00.927Z,2.3
2016-12-16T10:05:06.198Z,2.1
2016-12-16T10:06:12.209Z,2.3
2016-12-16T10:07:17.123Z,2.3
2016-12-16T10:08:23.147Z,2.3
2016-12-16T10:09:29.167Z,2.4
2016-12-16T10:10:35.194Z,2.6
2016-12-16T10:11:41.214Z,2.6
2016-12-16T10:12:47.236Z,2.8
2016-12-16T10:13:53.255Z,2.9
2016-12-16T10:14:59.276Z,2.9
2016-12-16T10:16:05.298Z,2.9
2016-12-16T10:17:11.315Z,3
2016-12-16T10:18:17.335Z,3.2
2016-12-16T10:19:23.349Z,3
2016-12-16T10:20:29.372Z,3.2
2016-12-16T10:21:35.388Z,3.6
2016-12-16T10:22:41.410Z,3.7
2016-12-16T10:23:47.434Z,4
2016-12-16T10:24:53.457Z,3.2
2016-12-16T10:25:59.473Z,2.9
2016-12-16T10:27:05.495Z,2.9
2016-12-16T10:28:11.512Z,2.8
2016-12-16T10:29:17.534Z,2.9
2016-12-16T10:30:23.550Z,3.2
2016-12-16T10:31:29.572Z,3.4
2016-12-16T10:32:35.592Z,3.4
2016-12-16T10:33:41.612Z,3.5
2016-12-16T10:34:47.639Z,3.3
2016-12-16T10:35:53.659Z,3.4
2016-12-16T10:36:59.674Z,3.4
2016-12-16T10:38:05.687Z,3.5
2016-12-16T10:39:11.709Z,3.4
2016-12-16T10:40:17.736Z,3.2
2016-12-16T10:41:23.758Z,3.1
2016-12-16T10:42:29.782Z,3.1
2016-12-16T10:43:35.790Z,3.4
2016-12-16T10:44:41.818Z,3.4
2016-12-16T10:45:47.836Z,3.2
2016-12-16T10:46:53.852Z,3.5
2016-12-16T10:47:59.866Z,3.7
2016-12-16T10:49:05.896Z,3.4
2016-12-16T10:50:11.911Z,3.4
2016-12-16T10:51:17.927Z,3.2
2016-12-16T10:52:23.952Z,3.2
2016-12-16T10:53:29.973Z,3
2016-12-16T10:54:35.991Z,3.2
2016-12-16T10:55:42.010Z,3.3
2016-12-16T10:56:48.041Z,3.7
2016-12-16T10:57:54.051Z,3.6
2016-12-16T10:59:00.069Z,3.2
2016-12-16T11:00:06.083Z,3.2
2016-12-16T11:01:12.106Z,3.3
2016-12-16T11:02:18.125Z,3.3
2016-12-16T11:03:24.147Z,3.1
2016-12-16T11:04:30.160Z,3.2
2016-12-16T11:05:36.195Z,3.3
2016-12-16T11:06:42.300Z,3.6
2016-12-16T11:07:48.235Z,3.2
2016-12-16T11:08:54.244Z,2.9
2016-12-16T11:10:00.262Z,3
2016-12-16T11:11:06.283Z,3.3
2016-12-16T11:12:12.310Z,3.2
2016-12-16T11:13:18.322Z,3.4
2016-12-16T11:14:24.342Z,3
2016-12-16T11:15:30.360Z,3.1
2016-12-16T11:16:36.380Z,3.2
2016-12-16T11:17:42.392Z,3
2016-12-16T11:18:48.414Z,3.2
2016-12-16T11:19:54.438Z,2.9
2016-12-16T11:21:00.453Z,3
2016-12-16T11:22:06.497Z,2.7
2016-12-16T11:23:12.499Z,2.8
2016-12-16T11:24:18.554Z,2.8
2016-12-16T11:25:33.910Z,2.7
2016-12-16T11:26:50.260Z,2.7
2016-12-16T11:27:56.406Z,2.3
2016-12-16T11:29:02.623Z,2.2
2016-12-16T11:30:08.637Z,2
2016-12-16T11:31:14.663Z,2
2016-12-16T11:32:20.685Z,1.9
2016-12-16T11:33:26.730Z,2.1
2016-12-16T11:34:32.742Z,2.2
2016-12-16T11:35:38.761Z,1.9
2016-12-16T11:36:44.782Z,1.7
2016-12-16T11:37:50.808Z,1.7
2016-12-16T11:38:56.855Z,1.7
2016-12-16T11:40:02.917Z,1.6
2016-12-16T11:41:08.953Z,1.6
2016-12-16T11:42:14.968Z,1.5
2016-12-16T11:43:20.985Z,1.7
2016-12-16T11:44:26.994Z,1.7
2016-12-16T11:45:33.011Z,1.7
2016-12-16T11:46:39.085Z,2.1
2016-12-16T11:47:45.127Z,2
2016-12-16T11:48:51.148Z,2
2016-12-16T11:49:57.162Z,2
2016-12-16T11:51:03.178Z,1.9
2016-12-16T11:52:09.249Z,1.7
2016-12-16T11:54:22.869Z,1.7
2016-12-16T11:55:28.889Z,1.7
2016-12-16T11:56:34.914Z,1.6
2016-12-16T11:57:40.940Z,1.6
2016-12-16T11:58:46.958Z,1.7
2016-12-16T11:59:52.981Z,1.6
2016-12-16T12:00:58.998Z,1.7
2016-12-16T12:02:05.012Z,1.8
2016-12-16T12:03:11.028Z,1.8
2016-12-16T12:04:17.050Z,1.7
2016-12-16T12:05:23.069Z,1.7
2016-12-16T12:06:29.082Z,1.6
2016-12-16T12:07:35.101Z,1.6
2016-12-16T12:08:41.124Z,1.7
2016-12-16T12:09:47.148Z,1.7
2016-12-16T12:10:53.170Z,1.7
2016-12-16T12:11:59.196Z,1.7
2016-12-16T12:13:05.212Z,1.8
2016-12-16T12:14:11.226Z,1.7
2016-12-16T12:15:17.277Z,1.6
2016-12-16T12:16:23.307Z,1.5
2016-12-16T12:17:29.354Z,1.6
2016-12-16T12:18:35.377Z,1.6
2016-12-16T12:19:41.389Z,1.7
2016-12-16T12:20:47.406Z,1.7
2016-12-16T12:21:53.426Z,1.7
2016-12-16T12:22:59.449Z,1.6
2016-12-16T12:24:05.463Z,1.5
2016-12-16T12:25:11.489Z,1.7
2016-12-16T12:26:17.509Z,1.6
2016-12-16T12:27:23.534Z,1.7
2016-12-16T12:28:29.570Z,1.7
2016-12-16T12:29:35.587Z,1.6
2016-12-16T12:30:41.602Z,1.5
2016-12-16T12:31:47.615Z,1.6
2016-12-16T12:32:53.634Z,1.6
2016-12-16T12:33:59.649Z,1.6
2016-12-16T12:35:05.666Z,1.5
2016-12-16T12:36:11.685Z,1.5
2016-12-16T12:37:17.703Z,1.5
2016-12-16T12:38:23.721Z,1.4
2016-12-16T12:39:29.743Z,1.5
2016-12-16T12:40:35.818Z,1.5
2016-12-16T12:41:41.861Z,1.6
2016-12-16T12:42:47.889Z,1.5
2016-12-16T12:45:01.696Z,1.3
2016-12-16T12:46:07.664Z,1.2
2016-12-16T12:47:13.688Z,1.4
2016-12-16T12:48:19.775Z,1.5
2016-12-16T12:49:25.806Z,1.4
2016-12-16T12:50:31.855Z,1.4
2016-12-16T12:51:37.872Z,1.4
2016-12-16T12:52:44.453Z,1.4
2016-12-16T12:53:50.060Z,1.4
2016-12-16T12:54:56.079Z,1.4
2016-12-16T12:56:02.102Z,1.3
2016-12-16T12:57:08.117Z,1.2
2016-12-16T12:58:14.151Z,1.1
2016-12-16T12:59:20.171Z,1.2
2016-12-16T13:00:26.191Z,1.2
2016-12-16T13:01:32.209Z,1.2
2016-12-16T13:02:38.234Z,1.2
2016-12-16T13:03:45.780Z,1.2
2016-12-16T13:04:51.299Z,1
2016-12-16T13:05:57.353Z,1.1
2016-12-16T13:07:03.388Z,1.1
2016-12-16T13:08:09.452Z,1.2
2016-12-16T13:09:15.461Z,1.3
2016-12-16T13:10:21.469Z,1.4
2016-12-16T13:11:27.478Z,1.3
2016-12-16T13:12:33.502Z,1.2
2016-12-16T13:13:39.521Z,1.2
2016-12-16T13:14:45.674Z,1.3
2016-12-16T13:15:51.695Z,1.4
2016-12-16T13:16:57.720Z,1.4
2016-12-16T13:18:15.723Z,1.2
2016-12-16T13:19:21.254Z,1.2
2016-12-16T13:20:27.260Z,1.2
2016-12-16T13:21:33.274Z,1.1
2016-12-16T13:22:39.291Z,1.1
2016-12-16T13:23:44.564Z,1.2
2016-12-16T13:24:50.581Z,1.3
2016-12-16T13:25:56.608Z,1.4
2016-12-16T13:27:02.635Z,1.4
2016-12-16T13:28:08.653Z,1.3
2016-12-16T13:29:14.666Z,1.3
2016-12-16T13:30:20.688Z,1.2
2016-12-16T13:31:26.709Z,1.1
2016-12-16T13:32:32.726Z,1.1
2016-12-16T13:33:38.742Z,0.9
2016-12-16T13:34:44.770Z,0.7
2016-12-16T13:35:50.792Z,0.7
2016-12-16T13:36:56.803Z,0.7
2016-12-16T13:38:02.819Z,0.8
2016-12-16T13:39:08.841Z,0.8
2016-12-16T13:40:14.858Z,0.8
2016-12-16T13:41:20.878Z,0.7
2016-12-16T13:42:26.896Z,0.7
2016-12-16T13:43:32.917Z,0.8
2016-12-16T13:44:39.054Z,0.9
2016-12-16T13:45:44.999Z,0.9
2016-12-16T13:46:51.022Z,0.9
2016-12-16T13:47:57.043Z,0.9
2016-12-16T13:49:03.068Z,0.8
2016-12-16T13:50:07.984Z,0.7
2016-12-16T13:51:14.019Z,0.7
2016-12-16T13:52:20.035Z,0.7
2016-12-16T13:53:26.169Z,0.7
2016-12-16T13:54:32.144Z,0.7
2016-12-16T13:55:38.160Z,0.7
2016-12-16T13:56:43.089Z,0.7
2016-12-16T13:57:49.100Z,0.7
2016-12-16T13:58:55.121Z,0.7
2016-12-16T14:00:01.138Z,0.6
2016-12-16T14:01:07.164Z,0.7
2016-12-16T14:02:13.173Z,0.6
2016-12-16T14:03:19.191Z,0.7
2016-12-16T14:04:25.211Z,0.8
2016-12-16T14:05:31.238Z,0.7
2016-12-16T14:06:37.249Z,0.7
2016-12-16T14:07:43.264Z,0.7
2016-12-16T14:08:49.287Z,0.7
2016-12-16T14:09:55.308Z,0.8
2016-12-16T14:11:01.320Z,0.8
2016-12-16T14:12:07.335Z,1
2016-12-16T14:13:13.354Z,1
2016-12-16T14:14:19.364Z,1
2016-12-16T14:15:25.387Z,1.1
2016-12-16T14:16:31.408Z,1
2016-12-16T14:17:37.431Z,1
2016-12-16T14:18:43.446Z,0.9
2016-12-16T14:19:49.469Z,0.9
2016-12-16T14:20:55.480Z,1
2016-12-16T14:22:01.492Z,1.1
2016-12-16T14:23:07.511Z,1.2
2016-12-16T14:24:13.535Z,1.3
2016-12-16T14:25:19.545Z,1
2016-12-16T14:26:25.575Z,1.1
2016-12-16T14:27:31.598Z,1.1
2016-12-16T14:28:37.625Z,1.1
2016-12-16T14:29:43.631Z,0.9
2016-12-16T14:30:49.648Z,0.9
2016-12-16T14:31:55.669Z,0.8
2016-12-16T14:33:01.682Z,0.9
2016-12-16T14:34:07.701Z,0.9
2016-12-16T14:35:12.979Z,0.9
2016-12-16T14:36:19.007Z,1
2016-12-16T14:37:25.024Z,1
2016-12-16T14:38:31.070Z,1.2
2016-12-16T14:39:37.071Z,1.2
2016-12-16T14:40:43.086Z,1
2016-12-16T14:41:49.101Z,0.9
2016-12-16T14:42:55.119Z,0.8
2016-12-16T14:44:01.143Z,1
2016-12-16T14:45:07.164Z,1
2016-12-16T14:46:13.184Z,1
2016-12-16T14:47:19.200Z,0.9
2016-12-16T14:48:25.222Z,0.9
2016-12-16T14:49:31.237Z,0.8
2016-12-16T14:50:37.253Z,0.9
2016-12-16T14:51:43.270Z,0.9
2016-12-16T14:52:49.289Z,0.7
2016-12-16T14:53:55.316Z,0.7
2016-12-16T14:55:01.331Z,0.8
2016-12-16T14:56:07.343Z,0.9
2016-12-16T14:57:13.364Z,1
2016-12-16T14:58:19.450Z,0.9
2016-12-16T14:59:25.433Z,0.8
2016-12-16T15:00:31.444Z,0.8
2016-12-16T15:01:37.464Z,0.8
2016-12-16T15:02:43.488Z,0.8
2016-12-16T15:03:49.501Z,0.7
2016-12-16T15:04:55.535Z,0.7
2016-12-16T15:06:00.795Z,0.9
2016-12-16T15:07:06.813Z,0.9
2016-12-16T15:08:12.831Z,1
2016-12-16T15:09:18.850Z,1.1
2016-12-16T15:10:24.871Z,1
2016-12-16T15:11:30.892Z,0.9
2016-12-16T15:12:36.907Z,0.9
2016-12-16T15:13:42.930Z,0.8
2016-12-16T15:14:48.951Z,0.7
2016-12-16T15:15:54.977Z,0.8
2016-12-16T15:17:00.997Z,0.8
2016-12-16T15:18:07.020Z,0.9
2016-12-16T15:19:13.035Z,1.1
2016-12-16T15:20:19.052Z,1.2
2016-12-16T15:21:25.072Z,1.3
2016-12-16T15:22:31.097Z,1.2
2016-12-16T15:23:37.114Z,1.1
2016-12-16T15:24:43.127Z,1.1
2016-12-16T15:25:49.149Z,1
2016-12-16T15:26:55.171Z,0.9
2016-12-16T15:28:01.184Z,0.9
2016-12-16T15:29:07.202Z,0.8
2016-12-16T15:30:13.211Z,0.8
2016-12-16T15:31:19.235Z,0.9
2016-12-16T15:32:25.258Z,0.9
2016-12-16T15:33:31.283Z,0.9
2016-12-16T15:34:37.287Z,0.9
2016-12-16T15:35:43.308Z,1
2016-12-16T15:36:49.334Z,0.9
2016-12-16T15:37:55.352Z,0.9
2016-12-16T15:39:01.360Z,0.7
2016-12-16T15:40:07.381Z,0.7
2016-12-16T15:41:13.418Z,0.7
2016-12-16T15:42:18.672Z,0.7
2016-12-16T15:43:24.687Z,0.8
2016-12-16T15:44:30.705Z,0.8
2016-12-16T15:45:36.727Z,0.8
2016-12-16T15:46:42.745Z,0.9
2016-12-16T15:47:48.769Z,0.9
2016-12-16T15:48:54.786Z,0.9
2016-12-16T15:50:00.809Z,0.9
2016-12-16T15:51:06.826Z,0.8
2016-12-16T15:52:12.853Z,0.8
2016-12-16T15:53:18.876Z,0.8
2016-12-16T15:54:24.902Z,0.8
2016-12-16T15:55:30.932Z,0.8
2016-12-16T15:56:36.955Z,0.7
2016-12-16T15:57:42.962Z,0.8
2016-12-16T15:58:48.984Z,0.8
2016-12-16T15:59:55.002Z,0.8
2016-12-16T16:01:01.028Z,0.8
2016-12-16T16:02:07.044Z,0.8
2016-12-16T16:03:13.065Z,0.7
2016-12-16T16:04:19.083Z,0.7
2016-12-16T16:05:25.096Z,0.8
2016-12-16T16:06:31.126Z,0.7
2016-12-16T16:07:37.152Z,0.7
2016-12-16T16:08:43.172Z,0.8
2016-12-16T16:09:49.183Z,0.9
2016-12-16T16:10:55.212Z,0.9
2016-12-16T16:12:01.223Z,0.9
2016-12-16T16:13:07.236Z,0.9
2016-12-16T16:14:13.250Z,0.8
2016-12-16T16:15:19.279Z,0.9
2016-12-16T16:16:25.299Z,0.9
2016-12-16T16:17:31.326Z,0.9
2016-12-16T16:18:37.342Z,0.8
2016-12-16T16:19:43.357Z,0.8
2016-12-16T16:20:49.384Z,0.8
2016-12-16T16:21:55.400Z,0.9
2016-12-16T16:23:01.413Z,0.9
2016-12-16T16:24:07.436Z,0.8
2016-12-16T16:25:13.471Z,0.8
2016-12-16T16:26:19.479Z,0.9
2016-12-16T16:27:25.505Z,0.8
2016-12-16T16:28:31.526Z,0.7
2016-12-16T16:29:37.544Z,0.7
2016-12-16T16:30:43.561Z,0.7
2016-12-16T16:31:49.578Z,0.7
2016-12-16T16:32:55.601Z,0.7
2016-12-16T16:34:01.620Z,0.7
2016-12-16T16:35:07.644Z,0.7
2016-12-16T16:36:13.662Z,0.7
2016-12-16T16:37:19.682Z,0.7
2016-12-16T16:38:25.696Z,0.6
2016-12-16T16:39:31.717Z,0.6
2016-12-16T16:40:37.748Z,0.6
2016-12-16T16:41:43.767Z,0.8
2016-12-16T16:42:49.780Z,0.9
2016-12-16T16:43:55.801Z,1
2016-12-16T16:45:01.819Z,1
2016-12-16T16:46:07.836Z,1
2016-12-16T16:47:13.858Z,0.8
2016-12-16T16:48:19.126Z,0.6
2016-12-16T16:49:25.149Z,0.8
2016-12-16T16:50:31.172Z,0.9
2016-12-16T16:51:36.441Z,0.9
2016-12-16T16:52:42.460Z,0.9
2016-12-16T16:53:48.478Z,0.9
2016-12-16T16:54:54.502Z,1
2016-12-16T16:56:00.521Z,0.9
2016-12-16T16:57:06.539Z,0.8
2016-12-16T16:58:12.561Z,0.7
2016-12-16T16:59:18.581Z,0.8
2016-12-16T17:00:24.596Z,0.6
2016-12-16T17:01:30.612Z,0.6
2016-12-16T17:02:36.638Z,0.7
2016-12-16T17:03:42.656Z,0.7
2016-12-16T17:04:48.679Z,0.7
2016-12-16T17:05:54.694Z,0.8
2016-12-16T17:07:00.708Z,0.7
2016-12-16T17:08:06.731Z,0.8
2016-12-16T17:09:12.758Z,0.7
2016-12-16T17:10:18.769Z,0.8
2016-12-16T17:11:24.784Z,0.7
2016-12-16T17:12:30.805Z,0.6
2016-12-16T17:13:36.825Z,0.5
2016-12-16T17:14:42.849Z,0.5
2016-12-16T17:15:48.881Z,0.7
2016-12-16T17:16:54.895Z,0.7
2016-12-16T17:18:00.912Z,0.7
2016-12-16T17:19:06.924Z,0.8
2016-12-16T17:20:12.953Z,0.7
2016-12-16T17:21:18.967Z,0.5
2016-12-16T17:22:24.986Z,0.6
2016-12-16T17:23:31.006Z,0.7
2016-12-16T17:24:37.033Z,0.7
2016-12-16T17:25:43.047Z,0.7
2016-12-16T17:26:49.069Z,0.8
2016-12-16T17:27:55.085Z,0.8
2016-12-16T17:29:01.098Z,0.8
2016-12-16T17:30:07.120Z,0.9
2016-12-16T17:31:12.391Z,0.8
2016-12-16T17:32:18.406Z,0.7
2016-12-16T17:33:24.424Z,0.5
2016-12-16T17:34:30.450Z,0.5
2016-12-16T17:35:36.469Z,0.6
2016-12-16T17:36:42.489Z,0.6
2016-12-16T17:37:48.503Z,0.5
2016-12-16T17:38:54.529Z,0.5
2016-12-16T17:40:00.542Z,0.5
2016-12-16T17:41:06.561Z,0.7
2016-12-16T17:42:12.581Z,0.7
2016-12-16T17:43:18.609Z,0.6
2016-12-16T17:44:24.625Z,0.6
2016-12-16T17:45:30.642Z,0.6
2016-12-16T17:46:36.674Z,0.5